createdAt,value
2019-01-31T00:02:06.934Z,-0.67
2019-01-31T00:04:46.985Z,-0.72
2019-01-31T00:07:53.133Z,-0.72
2019-01-31T00:10:42.821Z,-0.70
2019-01-31T00:13:30.646Z,-0.66
2019-01-31T00:16:36.891Z,-0.73
2019-01-31T00:19:42.827Z,-0.72
2019-01-31T00:22:48.714Z,-0.66
2019-01-31T00:25:54.706Z,-0.73
2019-01-31T00:28:45.157Z,-0.71
2019-01-31T00:31:51.397Z,-0.69
2019-01-31T00:34:44.593Z,-0.71
2019-01-31T00:37:37.200Z,-0.79
2019-01-31T00:40:27.015Z,-0.82
2019-01-31T00:43:32.968Z,-0.85
2019-01-31T00:46:38.867Z,-0.82
2019-01-31T00:49:28.236Z,-0.82
2019-01-31T00:52:34.093Z,-0.74
2019-01-31T00:55:28.210Z,-0.78
2019-01-31T00:58:34.391Z,-0.70
2019-01-31T01:01:08.641Z,-0.77
2019-01-31T01:03:59.809Z,-0.69
2019-01-31T01:07:05.786Z,-0.63
2019-01-31T01:09:54.893Z,-0.74
2019-01-31T01:12:47.047Z,-0.82
2019-01-31T01:15:40.435Z,-0.78
2019-01-31T01:18:29.237Z,-0.77
2019-01-31T01:21:18.871Z,-0.70
2019-01-31T01:24:08.056Z,-0.73
2019-01-31T01:27:13.958Z,-0.67
2019-01-31T01:30:14.003Z,-0.79
2019-01-31T01:33:03.196Z,-0.64
2019-01-31T01:35:53.489Z,-0.72
2019-01-31T01:38:59.355Z,-0.71
2019-01-31T01:42:05.363Z,-0.76
2019-01-31T01:45:11.255Z,-0.66
2019-01-31T01:48:17.439Z,-0.71
2019-01-31T01:51:06.941Z,-0.62
2019-01-31T01:54:12.924Z,-0.67
2019-01-31T01:57:18.781Z,-0.68
2019-01-31T02:00:25.041Z,-0.65
2019-01-31T02:03:30.897Z,-0.71
2019-01-31T02:06:36.820Z,-0.65
2019-01-31T02:09:42.994Z,-0.62
2019-01-31T02:12:33.615Z,-0.51
2019-01-31T02:15:27.717Z,-0.58
2019-01-31T02:18:17.628Z,-0.57
2019-01-31T02:21:23.489Z,-0.56
2019-01-31T02:24:22.195Z,-0.56
2019-01-31T02:27:28.063Z,-0.54
2019-01-31T02:30:33.971Z,-0.60
2019-01-31T02:33:24.163Z,-0.56
2019-01-31T02:36:30.467Z,-0.59
2019-01-31T02:39:43.170Z,-0.60
2019-01-31T02:42:44.653Z,-0.52
2019-01-31T02:45:50.797Z,-0.53
2019-01-31T02:48:49.548Z,-0.40
2019-01-31T02:51:55.487Z,-0.45
2019-01-31T02:54:47.855Z,-0.52
2019-01-31T03:01:49.644Z,-0.65
2019-01-31T03:04:55.823Z,-0.53
2019-01-31T03:08:01.744Z,-0.60
2019-01-31T03:10:59.347Z,-0.61
2019-01-31T03:14:10.182Z,-0.66
2019-01-31T03:17:13.394Z,-0.61
2019-01-31T03:20:19.716Z,-0.65
2019-01-31T03:23:25.646Z,-0.53
2019-01-31T03:26:31.623Z,-0.68
2019-01-31T03:29:26.833Z,-0.70
2019-01-31T03:32:32.760Z,-0.67
2019-01-31T03:35:22.590Z,-0.68
2019-01-31T03:38:28.566Z,-0.71
2019-01-31T03:41:34.714Z,-0.61
2019-01-31T03:44:40.698Z,-0.61
2019-01-31T03:47:46.563Z,-0.58
2019-01-31T03:50:38.708Z,-0.68
2019-01-31T03:53:18.455Z,-0.68
2019-01-31T03:56:24.429Z,-0.76
2019-01-31T03:58:56.697Z,-0.77
2019-01-31T04:02:02.636Z,-0.81
2019-01-31T04:04:33.670Z,-0.81
2019-01-31T04:07:01.062Z,-0.70
2019-01-31T04:12:22.814Z,-0.69
2019-01-31T04:14:49.585Z,-0.54
2019-01-31T04:17:16.326Z,-0.54
2019-01-31T04:19:43.461Z,-0.45
2019-01-31T04:22:10.332Z,-0.55
2019-01-31T04:24:37.363Z,-0.52
2019-01-31T04:27:04.233Z,-0.46
2019-01-31T04:29:31.172Z,-0.43
2019-01-31T04:31:58.292Z,-0.50
2019-01-31T04:34:25.155Z,-0.50
2019-01-31T04:36:52.183Z,-0.51
2019-01-31T04:39:19.022Z,-0.51
2019-01-31T04:41:46.244Z,-0.52
2019-01-31T04:44:13.120Z,-0.47
2019-01-31T04:46:40.513Z,-0.52
2019-01-31T04:49:07.915Z,-0.49
2019-01-31T04:51:34.906Z,-0.50
2019-01-31T04:54:01.612Z,-0.52
2019-01-31T04:56:28.417Z,-0.51
2019-01-31T04:58:55.149Z,-0.52
2019-01-31T05:01:41.637Z,-0.50
2019-01-31T05:04:08.371Z,-0.50
2019-01-31T05:06:35.267Z,-0.53
2019-01-31T05:11:37.189Z,-0.51
2019-01-31T05:14:04.302Z,-0.46
2019-01-31T05:16:51.753Z,-0.53
2019-01-31T05:19:19.263Z,-0.53
2019-01-31T05:21:46.120Z,-0.54
2019-01-31T05:24:13.064Z,-0.52
2019-01-31T05:26:39.848Z,-0.41
2019-01-31T05:29:06.752Z,-0.50
2019-01-31T05:31:33.646Z,-0.51
2019-01-31T05:34:00.439Z,-0.44
2019-01-31T05:36:27.477Z,-0.44
2019-01-31T05:38:54.298Z,-0.56
2019-01-31T05:41:21.293Z,-0.56
2019-01-31T05:43:48.056Z,-0.55
2019-01-31T05:46:14.892Z,-0.55
2019-01-31T05:48:41.634Z,-0.50
2019-01-31T05:51:28.117Z,-0.62
2019-01-31T05:53:54.849Z,-0.62
2019-01-31T05:56:21.663Z,-0.64
2019-01-31T05:59:08.106Z,-0.59
2019-01-31T06:01:34.899Z,-0.59
2019-01-31T06:04:01.635Z,-0.47
2019-01-31T06:06:28.599Z,-0.41
2019-01-31T06:08:55.479Z,-0.54
2019-01-31T06:11:22.215Z,-0.55
2019-01-31T06:13:49.062Z,-0.51
2019-01-31T06:16:16.094Z,-0.52
2019-01-31T06:18:43.116Z,-0.49
2019-01-31T06:21:09.947Z,-0.52
2019-01-31T06:23:36.690Z,-0.51
2019-01-31T06:26:03.448Z,-0.59
2019-01-31T06:28:30.375Z,-0.67
2019-01-31T06:30:57.117Z,-0.65
2019-01-31T06:33:23.765Z,-0.67
2019-01-31T06:35:50.602Z,-0.78
2019-01-31T06:38:37.098Z,-0.87
2019-01-31T06:41:04.016Z,-0.67
2019-01-31T06:43:30.761Z,-0.67
2019-01-31T06:45:57.544Z,-0.69
2019-01-31T06:48:24.338Z,-0.69
2019-01-31T06:50:51.075Z,-0.80
2019-01-31T06:53:17.853Z,-0.92
2019-01-31T06:55:45.004Z,-0.95
2019-01-31T06:58:24.140Z,-0.88
2019-01-31T07:00:51.066Z,-0.88
2019-01-31T07:03:17.903Z,-0.86
2019-01-31T07:05:44.662Z,-0.86
2019-01-31T07:08:11.549Z,-0.89
2019-01-31T07:10:38.399Z,-0.93
2019-01-31T07:13:05.150Z,-0.86
2019-01-31T07:15:32.087Z,-0.81
2019-01-31T07:17:58.848Z,-0.81
2019-01-31T07:20:25.698Z,-0.78
2019-01-31T07:22:52.523Z,-0.72
2019-01-31T07:25:21.447Z,-0.72
2019-01-31T07:27:48.290Z,-0.55
2019-01-31T07:30:15.452Z,-0.46
2019-01-31T07:32:42.448Z,-0.40
2019-01-31T07:35:10.948Z,-0.45
2019-01-31T07:37:38.148Z,-0.45
2019-01-31T07:40:46.558Z,-0.47
2019-01-31T07:43:14.033Z,-0.51
2019-01-31T07:45:40.788Z,-0.45
2019-01-31T07:48:07.739Z,-0.42
2019-01-31T07:50:34.610Z,-0.34
2019-01-31T07:53:01.785Z,-0.41
2019-01-31T07:55:28.439Z,-0.36
2019-01-31T07:57:55.308Z,-0.36
2019-01-31T08:00:22.370Z,-0.31
2019-01-31T08:03:01.906Z,-0.35
2019-01-31T08:05:29.130Z,-0.31
2019-01-31T08:08:15.732Z,-0.24
2019-01-31T08:10:42.525Z,-0.24
2019-01-31T08:13:29.008Z,-0.19
2019-01-31T08:15:55.842Z,-0.24
2019-01-31T08:18:22.876Z,-0.19
2019-01-31T08:20:49.867Z,-0.14
2019-01-31T08:23:16.611Z,-0.10
2019-01-31T08:25:43.540Z,-0.06
2019-01-31T08:28:10.856Z,-0.01
2019-01-31T08:30:39.675Z,-0.01
2019-01-31T08:33:06.820Z,-0.05
2019-01-31T08:35:34.223Z,0.09
2019-01-31T08:38:00.869Z,0.29
2019-01-31T08:40:47.357Z,0.28
2019-01-31T08:43:14.065Z,0.28
2019-01-31T08:46:00.569Z,0.41
2019-01-31T08:48:27.415Z,0.41
2019-01-31T08:50:54.448Z,0.46
2019-01-31T08:53:21.382Z,0.48
2019-01-31T08:55:48.340Z,0.45
2019-01-31T08:58:15.996Z,0.52
2019-01-31T09:00:44.398Z,0.45
2019-01-31T09:03:12.121Z,0.57
2019-01-31T09:05:52.235Z,0.55
2019-01-31T09:08:19.069Z,0.68
2019-01-31T09:10:47.644Z,0.98
2019-01-31T09:13:15.193Z,1.17
2019-01-31T09:15:43.484Z,0.84
2019-01-31T09:18:10.521Z,1.00
2019-01-31T09:21:16.844Z,1.09
2019-01-31T09:24:23.145Z,1.07
2019-01-31T09:27:29.294Z,1.30
2019-01-31T09:30:23.379Z,1.43
2019-01-31T09:33:29.376Z,1.49
2019-01-31T09:36:35.523Z,1.44
2019-01-31T09:39:41.469Z,1.58
2019-01-31T09:42:12.598Z,1.63
2019-01-31T09:45:18.547Z,2.07
2019-01-31T09:48:24.392Z,2.10
2019-01-31T09:51:30.395Z,2.23
2019-01-31T09:54:10.445Z,2.40
2019-01-31T09:57:01.591Z,2.15
2019-01-31T10:00:07.485Z,2.32
2019-01-31T10:03:13.496Z,2.73
2019-01-31T10:06:19.362Z,2.76
2019-01-31T10:09:25.407Z,2.71
2019-01-31T10:12:37.883Z,2.73
2019-01-31T10:15:39.217Z,3.26
2019-01-31T10:18:32.926Z,3.15
2019-01-31T10:21:26.487Z,2.89
2019-01-31T10:24:32.380Z,3.03
2019-01-31T10:27:38.326Z,3.30
2019-01-31T10:30:44.190Z,3.63
2019-01-31T10:33:34.997Z,3.55
2019-01-31T10:36:24.186Z,3.60
2019-01-31T10:39:30.172Z,3.84
2019-01-31T10:42:20.949Z,3.79
2019-01-31T10:45:26.934Z,3.80
2019-01-31T10:48:32.795Z,3.90
2019-01-31T10:51:38.724Z,3.73
2019-01-31T10:54:44.583Z,3.74
2019-01-31T10:57:41.062Z,3.61
2019-01-31T11:00:47.207Z,3.66
2019-01-31T11:03:41.402Z,4.01
2019-01-31T11:06:47.414Z,3.86
2019-01-31T11:09:53.741Z,4.37
2019-01-31T11:13:00.984Z,4.70
2019-01-31T11:16:06.946Z,5.13
2019-01-31T11:19:05.337Z,4.93
2019-01-31T11:21:59.608Z,5.11
2019-01-31T11:25:05.789Z,5.20
2019-01-31T11:28:11.760Z,5.23
2019-01-31T11:31:17.769Z,5.34
2019-01-31T11:34:32.610Z,5.10
2019-01-31T11:37:31.509Z,5.01
2019-01-31T11:40:37.445Z,5.17
2019-01-31T11:43:43.366Z,5.25
2019-01-31T11:52:51.751Z,5.11
2019-01-31T11:55:57.617Z,4.74
2019-01-31T11:58:48.354Z,5.03
2019-01-31T12:01:15.077Z,4.91
2019-01-31T12:03:42.235Z,4.77
2019-01-31T12:06:09.044Z,4.93
2019-01-31T12:08:36.027Z,5.02
2019-01-31T12:11:02.917Z,5.14
2019-01-31T12:13:29.767Z,5.40
2019-01-31T12:15:56.511Z,5.69
2019-01-31T12:18:23.251Z,5.62
2019-01-31T12:20:50.053Z,6.24
2019-01-31T12:23:16.843Z,5.84
2019-01-31T12:25:43.588Z,6.58
2019-01-31T12:28:10.523Z,6.90
2019-01-31T12:30:37.259Z,6.91
2019-01-31T12:33:04.086Z,6.80
2019-01-31T12:35:30.948Z,5.63
2019-01-31T12:37:57.693Z,5.32
2019-01-31T12:40:24.529Z,5.13
2019-01-31T12:42:51.452Z,4.78
2019-01-31T12:45:18.888Z,4.74
2019-01-31T12:47:45.617Z,5.10
2019-01-31T12:50:15.851Z,5.10
2019-01-31T12:52:43.002Z,4.62
2019-01-31T12:55:09.845Z,4.57
2019-01-31T12:57:37.041Z,4.38
2019-01-31T13:00:45.806Z,4.28
2019-01-31T13:03:13.918Z,4.10
2019-01-31T13:05:41.033Z,4.00
2019-01-31T13:08:07.773Z,3.93
2019-01-31T13:10:35.016Z,3.89
2019-01-31T13:13:14.882Z,3.89
2019-01-31T13:15:41.792Z,3.94
2019-01-31T13:18:08.722Z,4.02
2019-01-31T13:20:35.460Z,4.04
2019-01-31T13:23:02.345Z,4.03
2019-01-31T13:25:29.293Z,4.10
2019-01-31T13:27:57.565Z,4.00
2019-01-31T13:30:24.764Z,4.13
2019-01-31T13:32:52.740Z,4.03
2019-01-31T13:35:19.477Z,3.95
2019-01-31T13:37:46.376Z,3.98
2019-01-31T13:40:15.512Z,3.98
2019-01-31T13:42:42.517Z,4.04
2019-01-31T13:45:10.423Z,4.04
2019-01-31T13:47:37.207Z,4.05
2019-01-31T13:50:05.305Z,3.85
2019-01-31T13:52:32.385Z,3.89
2019-01-31T13:54:59.448Z,3.78
2019-01-31T13:57:26.288Z,3.85
2019-01-31T13:59:54.241Z,3.91
2019-01-31T14:02:21.068Z,3.84
2019-01-31T14:04:49.445Z,3.94
2019-01-31T14:07:16.285Z,3.84
2019-01-31T14:09:43.180Z,3.87
2019-01-31T14:12:09.921Z,3.73
2019-01-31T14:14:36.781Z,3.89
2019-01-31T14:17:03.613Z,3.91
2019-01-31T14:19:30.471Z,3.88
2019-01-31T14:21:57.476Z,3.93
2019-01-31T14:24:24.703Z,3.85
2019-01-31T14:26:51.899Z,3.72
2019-01-31T14:29:18.950Z,3.67
2019-01-31T14:31:45.680Z,3.71
2019-01-31T14:34:12.417Z,3.62
2019-01-31T14:39:33.547Z,3.60
2019-01-31T14:42:00.595Z,3.69
2019-01-31T14:44:27.322Z,3.63
2019-01-31T14:46:54.245Z,3.69
2019-01-31T14:49:20.972Z,3.74
2019-01-31T14:51:47.741Z,3.76
2019-01-31T14:54:14.835Z,3.83
2019-01-31T14:56:41.661Z,3.81
2019-01-31T14:59:11.286Z,3.86
2019-01-31T15:01:38.159Z,3.92
2019-01-31T15:04:06.002Z,3.70
2019-01-31T15:06:54.837Z,3.56
2019-01-31T15:09:21.846Z,3.52
2019-01-31T15:11:48.772Z,3.43
2019-01-31T15:14:15.954Z,3.37
2019-01-31T15:23:08.079Z,3.13
2019-01-31T15:25:34.819Z,2.99
2019-01-31T15:28:02.196Z,2.95
2019-01-31T15:30:31.415Z,2.85
2019-01-31T15:32:58.848Z,2.70
2019-01-31T15:35:26.743Z,2.54
2019-01-31T15:37:55.260Z,2.52
2019-01-31T15:41:04.792Z,2.36
2019-01-31T15:43:31.955Z,2.35
2019-01-31T15:45:59.210Z,2.20
2019-01-31T15:48:25.941Z,2.05
2019-01-31T15:50:52.864Z,1.99
2019-01-31T15:53:22.103Z,2.22
2019-01-31T15:58:45.796Z,1.97
2019-01-31T16:01:12.995Z,1.74
2019-01-31T16:03:40.099Z,1.58
2019-01-31T16:06:07.285Z,1.47
2019-01-31T16:08:34.147Z,1.36
2019-01-31T16:11:00.882Z,1.37
2019-01-31T16:13:47.352Z,1.39
2019-01-31T16:16:14.073Z,1.33
2019-01-31T16:18:43.825Z,1.15
2019-01-31T16:21:11.346Z,0.94
2019-01-31T16:23:38.083Z,0.75
2019-01-31T16:26:04.822Z,0.61
2019-01-31T16:28:31.658Z,0.52
2019-01-31T16:30:58.501Z,0.44
2019-01-31T16:33:25.374Z,0.31
2019-01-31T16:35:53.846Z,0.19
2019-01-31T16:38:23.995Z,0.08
2019-01-31T16:40:50.378Z,-0.02
2019-01-31T16:43:17.375Z,-0.11
2019-01-31T16:46:03.751Z,-0.21
2019-01-31T16:48:33.048Z,-0.25
2019-01-31T17:02:52.132Z,-0.32
2019-01-31T17:05:21.005Z,-0.45
2019-01-31T17:07:47.876Z,-0.49
2019-01-31T17:10:15.237Z,-0.53
2019-01-31T17:12:42.340Z,-0.57
2019-01-31T17:15:17.564Z,-0.62
2019-01-31T17:17:38.390Z,-0.62
2019-01-31T17:20:08.828Z,-0.75
2019-01-31T17:22:36.017Z,-0.66
2019-01-31T17:28:16.823Z,-0.72
2019-01-31T17:30:43.733Z,-0.51
2019-01-31T17:33:10.616Z,-0.53
2019-01-31T17:35:37.610Z,-0.56
2019-01-31T17:38:04.606Z,-0.53
2019-01-31T17:40:33.813Z,-0.56
2019-01-31T17:43:01.000Z,-0.49
2019-01-31T17:45:30.573Z,-0.44
2019-01-31T17:47:56.801Z,-0.46
2019-01-31T17:50:24.496Z,-0.50
2019-01-31T17:52:51.930Z,-0.44
2019-01-31T17:55:19.751Z,-0.48
2019-01-31T17:57:47.278Z,-0.31
2019-01-31T18:00:53.721Z,-0.39
2019-01-31T18:03:21.309Z,-0.39
2019-01-31T18:05:48.710Z,-0.46
2019-01-31T18:08:36.211Z,-0.53
2019-01-31T18:11:03.240Z,-0.53
2019-01-31T18:13:30.141Z,-0.50
2019-01-31T18:15:57.189Z,-0.53
2019-01-31T18:18:24.059Z,-0.51
2019-01-31T18:21:03.583Z,-0.54
2019-01-31T18:23:43.919Z,-0.54
2019-01-31T18:26:11.382Z,-0.48
2019-01-31T18:28:38.297Z,-0.42
2019-01-31T18:31:05.321Z,-0.40
2019-01-31T18:33:32.372Z,-0.38
2019-01-31T18:35:59.266Z,-0.38
2019-01-31T18:38:26.312Z,-0.40
2019-01-31T18:40:53.607Z,-0.35
2019-01-31T18:43:21.413Z,-0.45
2019-01-31T18:45:53.357Z,-0.33
2019-01-31T18:48:37.365Z,-0.55
2019-01-31T18:51:04.397Z,-0.59
2019-01-31T18:53:31.209Z,-0.59
2019-01-31T18:56:17.770Z,-0.75
2019-01-31T18:59:04.212Z,-0.88
2019-01-31T19:01:31.255Z,-0.88
2019-01-31T19:03:58.170Z,-1.01
2019-01-31T19:06:25.957Z,-1.03
2019-01-31T19:08:53.120Z,-1.06
2019-01-31T19:11:19.907Z,-1.11
2019-01-31T19:13:46.813Z,-1.16
2019-01-31T19:16:13.669Z,-1.12
2019-01-31T19:18:40.713Z,-0.96
2019-01-31T19:21:07.750Z,-0.96
2019-01-31T19:23:34.849Z,-0.93
2019-01-31T19:26:01.845Z,-0.89
2019-01-31T19:28:48.526Z,-0.86
2019-01-31T19:31:15.425Z,-0.86
2019-01-31T19:33:42.460Z,-0.75
2019-01-31T19:36:09.798Z,-0.61
2019-01-31T19:38:36.703Z,-0.77
2019-01-31T19:41:03.823Z,-0.77
2019-01-31T19:46:15.775Z,-0.96
2019-01-31T19:48:34.285Z,-1.00
2019-01-31T19:51:01.557Z,-1.14
2019-01-31T19:53:30.960Z,-1.05
2019-01-31T19:55:57.755Z,-1.03
2019-01-31T19:58:27.014Z,-1.03
2019-01-31T20:00:54.430Z,-0.97
2019-01-31T20:03:21.940Z,-0.92
2019-01-31T20:05:48.990Z,-0.89
2019-01-31T20:08:15.737Z,-0.89
2019-01-31T20:10:42.952Z,-0.83
2019-01-31T20:13:09.710Z,-0.96
2019-01-31T20:15:38.144Z,-0.93
2019-01-31T20:18:05.306Z,-1.01
2019-01-31T20:20:32.201Z,-1.01
2019-01-31T20:23:18.660Z,-1.01
2019-01-31T20:25:45.591Z,-1.03
2019-01-31T20:28:25.052Z,-1.03
2019-01-31T20:30:52.103Z,-0.97
2019-01-31T20:33:19.000Z,-0.97
2019-01-31T20:35:45.890Z,-0.99
2019-01-31T20:38:12.681Z,-0.91
2019-01-31T20:40:41.243Z,-0.84
2019-01-31T20:43:08.367Z,-0.95
2019-01-31T20:45:35.498Z,-0.84
2019-01-31T20:48:02.426Z,-0.85
2019-01-31T20:50:31.320Z,-0.82
2019-01-31T20:52:58.200Z,-0.85
2019-01-31T20:55:25.236Z,-0.82
2019-01-31T20:57:52.395Z,-0.81
2019-01-31T21:00:43.139Z,-0.85
2019-01-31T21:03:10.684Z,-0.78
2019-01-31T21:05:37.641Z,-0.80
2019-01-31T21:08:46.069Z,-0.84
2019-01-31T21:11:12.908Z,-0.92
2019-01-31T21:13:40.577Z,-0.92
2019-01-31T21:16:07.623Z,-0.81
2019-01-31T21:18:34.609Z,-0.81
2019-01-31T21:21:01.983Z,-0.78
2019-01-31T21:23:29.187Z,-0.82
2019-01-31T21:25:56.074Z,-0.89
2019-01-31T21:28:22.823Z,-0.87
2019-01-31T21:30:49.738Z,-0.90
2019-01-31T21:33:17.153Z,-0.97
2019-01-31T21:35:44.413Z,-0.93
2019-01-31T21:38:11.849Z,-0.96
2019-01-31T21:40:39.029Z,-1.01
2019-01-31T21:43:25.362Z,-1.05
2019-01-31T21:45:52.110Z,-1.03
2019-01-31T21:48:18.865Z,-1.16
2019-01-31T21:50:45.695Z,-1.23
2019-01-31T21:53:13.520Z,-1.23
2019-01-31T21:55:41.882Z,-1.17
2019-01-31T21:58:09.194Z,-1.26
2019-01-31T22:00:55.457Z,-1.35
2019-01-31T22:03:22.462Z,-1.31
2019-01-31T22:05:49.592Z,-1.37
2019-01-31T22:08:16.878Z,-1.37
2019-01-31T22:10:43.859Z,-1.37
2019-01-31T22:13:10.511Z,-1.43
2019-01-31T22:15:37.382Z,-1.46
2019-01-31T22:18:05.328Z,-1.52
2019-01-31T22:20:32.170Z,-1.48
2019-01-31T22:22:58.941Z,-1.47
2019-01-31T22:25:26.136Z,-1.45
2019-01-31T22:28:12.840Z,-1.55
2019-01-31T22:30:39.817Z,-1.59
2019-01-31T22:33:07.766Z,-1.56
2019-01-31T22:35:34.612Z,-1.55
2019-01-31T22:38:01.518Z,-1.65
2019-01-31T22:40:28.271Z,-1.61
2019-01-31T22:42:55.014Z,-1.65
2019-01-31T22:45:41.532Z,-1.71
2019-01-31T22:48:08.676Z,-1.65
2019-01-31T22:50:35.658Z,-1.68
2019-01-31T22:53:22.500Z,-1.63
2019-01-31T22:55:49.361Z,-1.72
2019-01-31T22:58:16.219Z,-1.75
2019-01-31T23:01:42.111Z,-1.74
2019-01-31T23:04:08.856Z,-1.77
2019-01-31T23:06:35.608Z,-1.70
2019-01-31T23:11:57.548Z,-1.69
2019-01-31T23:14:24.562Z,-1.77
2019-01-31T23:16:51.498Z,-1.75
2019-01-31T23:19:18.482Z,-1.73
2019-01-31T23:21:45.320Z,-1.77
2019-01-31T23:24:12.179Z,-1.75
2019-01-31T23:26:39.072Z,-1.81
2019-01-31T23:29:05.942Z,-1.80
2019-01-31T23:34:29.650Z,-1.85
2019-01-31T23:36:56.303Z,-1.90
2019-01-31T23:39:23.045Z,-1.95
2019-01-31T23:41:50.191Z,-1.94
2019-01-31T23:44:17.276Z,-1.93
2019-01-31T23:46:44.023Z,-1.94
2019-01-31T23:49:11.202Z,-1.93
2019-01-31T23:51:37.955Z,-2.01
2019-01-31T23:56:59.435Z,-1.95
2019-01-31T23:59:26.392Z,-1.92
